sensor_id;sensor_type;location;lat;lon;timestamp;P1;durP1;ratioP1;P2;durP2;ratioP2
3941;SDS011;1985;48.592;8.850;2022-09-03T00:02:34;9.40;;;2.00;;
3941;SDS011;1985;48.592;8.850;2022-09-03T00:13:13;9.85;;;2.10;;
3941;SDS011;1985;48.592;8.850;2022-09-03T00:15:52;8.80;;;1.90;;
3941;SDS011;1985;48.592;8.850;2022-09-03T00:18:22;9.55;;;2.08;;
3941;SDS011;1985;48.592;8.850;2022-09-03T00:21:00;10.00;;;2.28;;
3941;SDS011;1985;48.592;8.850;2022-09-03T00:23:37;9.50;;;2.37;;
3941;SDS011;1985;48.592;8.850;2022-09-03T00:28:41;9.02;;;2.05;;
3941;SDS011;1985;48.592;8.850;2022-09-03T00:31:24;8.70;;;1.90;;
3941;SDS011;1985;48.592;8.850;2022-09-03T00:34:03;9.90;;;2.30;;
3941;SDS011;1985;48.592;8.850;2022-09-03T00:36:38;8.80;;;2.13;;
3941;SDS011;1985;48.592;8.850;2022-09-03T00:39:14;9.52;;;2.05;;
3941;SDS011;1985;48.592;8.850;2022-09-03T00:52:50;9.10;;;1.90;;
3941;SDS011;1985;48.592;8.850;2022-09-03T00:55:31;9.75;;;2.17;;
3941;SDS011;1985;48.592;8.850;2022-09-03T01:00:37;8.88;;;1.90;;
3941;SDS011;1985;48.592;8.850;2022-09-03T01:05:42;9.95;;;2.00;;
3941;SDS011;1985;48.592;8.850;2022-09-03T01:08:42;11.40;;;2.33;;
3941;SDS011;1985;48.592;8.850;2022-09-03T01:16:30;9.75;;;1.80;;
3941;SDS011;1985;48.592;8.850;2022-09-03T01:19:15;9.00;;;2.10;;
3941;SDS011;1985;48.592;8.850;2022-09-03T01:30:36;8.95;;;1.90;;
3941;SDS011;1985;48.592;8.850;2022-09-03T01:33:14;8.80;;;2.03;;
3941;SDS011;1985;48.592;8.850;2022-09-03T01:35:56;10.40;;;2.13;;
3941;SDS011;1985;48.592;8.850;2022-09-03T01:47:03;9.35;;;1.98;;
3941;SDS011;1985;48.592;8.850;2022-09-03T01:49:39;8.73;;;1.80;;
3941;SDS011;1985;48.592;8.850;2022-09-03T01:52:16;9.40;;;2.10;;
3941;SDS011;1985;48.592;8.850;2022-09-03T01:57:44;9.20;;;2.00;;
3941;SDS011;1985;48.592;8.850;2022-09-03T02:00:20;9.15;;;1.70;;
3941;SDS011;1985;48.592;8.850;2022-09-03T02:02:48;10.10;;;2.33;;
3941;SDS011;1985;48.592;8.850;2022-09-03T02:05:25;10.67;;;2.30;;
3941;SDS011;1985;48.592;8.850;2022-09-03T02:08:04;10.00;;;2.10;;
3941;SDS011;1985;48.592;8.850;2022-09-03T02:10:45;8.90;;;1.80;;
3941;SDS011;1985;48.592;8.850;2022-09-03T02:13:19;11.53;;;2.73;;
3941;SDS011;1985;48.592;8.850;2022-09-03T02:15:49;9.07;;;1.83;;
3941;SDS011;1985;48.592;8.850;2022-09-03T02:18:24;9.02;;;2.20;;
3941;SDS011;1985;48.592;8.850;2022-09-03T02:20:53;9.57;;;2.50;;
3941;SDS011;1985;48.592;8.850;2022-09-03T02:23:20;9.50;;;2.10;;
3941;SDS011;1985;48.592;8.850;2022-09-03T02:25:47;9.50;;;2.17;;
3941;SDS011;1985;48.592;8.850;2022-09-03T02:28:19;9.80;;;2.40;;
3941;SDS011;1985;48.592;8.850;2022-09-03T02:30:46;8.93;;;1.80;;
3941;SDS011;1985;48.592;8.850;2022-09-03T02:33:12;9.30;;;2.15;;
3941;SDS011;1985;48.592;8.850;2022-09-03T02:35:39;9.45;;;2.20;;
3941;SDS011;1985;48.592;8.850;2022-09-03T02:38:19;9.60;;;2.40;;
3941;SDS011;1985;48.592;8.850;2022-09-03T02:40:49;9.60;;;2.40;;
3941;SDS011;1985;48.592;8.850;2022-09-03T02:43:30;10.30;;;2.80;;
3941;SDS011;1985;48.592;8.850;2022-09-03T02:46:05;9.50;;;2.00;;
3941;SDS011;1985;48.592;8.850;2022-09-03T02:48:36;9.00;;;2.00;;
3941;SDS011;1985;48.592;8.850;2022-09-03T02:51:02;13.20;;;2.43;;
3941;SDS011;1985;48.592;8.850;2022-09-03T02:53:27;10.27;;;2.58;;
3941;SDS011;1985;48.592;8.850;2022-09-03T02:56:00;10.23;;;2.10;;
3941;SDS011;1985;48.592;8.850;2022-09-03T02:58:26;9.68;;;2.28;;
3941;SDS011;1985;48.592;8.850;2022-09-03T03:00:52;9.55;;;2.30;;
3941;SDS011;1985;48.592;8.850;2022-09-03T03:03:18;9.77;;;2.30;;
3941;SDS011;1985;48.592;8.850;2022-09-03T03:05:45;10.77;;;3.20;;
3941;SDS011;1985;48.592;8.850;2022-09-03T03:08:14;9.75;;;2.20;;
3941;SDS011;1985;48.592;8.850;2022-09-03T03:10:45;11.20;;;2.40;;
3941;SDS011;1985;48.592;8.850;2022-09-03T03:13:15;11.55;;;3.00;;
3941;SDS011;1985;48.592;8.850;2022-09-03T03:15:41;9.57;;;2.20;;
3941;SDS011;1985;48.592;8.850;2022-09-03T03:18:07;10.30;;;2.40;;
3941;SDS011;1985;48.592;8.850;2022-09-03T03:20:36;10.10;;;2.50;;
3941;SDS011;1985;48.592;8.850;2022-09-03T03:23:02;13.88;;;3.05;;
3941;SDS011;1985;48.592;8.850;2022-09-03T03:25:31;9.83;;;2.40;;
3941;SDS011;1985;48.592;8.850;2022-09-03T03:27:57;11.40;;;3.10;;
3941;SDS011;1985;48.592;8.850;2022-09-03T03:30:23;10.70;;;2.90;;
3941;SDS011;1985;48.592;8.850;2022-09-03T03:32:48;9.47;;;2.40;;
3941;SDS011;1985;48.592;8.850;2022-09-03T03:35:14;10.90;;;2.70;;
3941;SDS011;1985;48.592;8.850;2022-09-03T03:37:39;9.60;;;2.47;;
3941;SDS011;1985;48.592;8.850;2022-09-03T03:40:05;11.10;;;3.00;;
3941;SDS011;1985;48.592;8.850;2022-09-03T03:42:32;10.20;;;3.00;;
3941;SDS011;1985;48.592;8.850;2022-09-03T03:44:59;10.23;;;3.00;;
3941;SDS011;1985;48.592;8.850;2022-09-03T03:47:26;10.50;;;2.85;;
3941;SDS011;1985;48.592;8.850;2022-09-03T03:49:55;10.90;;;2.58;;
3941;SDS011;1985;48.592;8.850;2022-09-03T03:52:22;15.45;;;2.85;;
3941;SDS011;1985;48.592;8.850;2022-09-03T03:54:48;10.60;;;3.40;;
3941;SDS011;1985;48.592;8.850;2022-09-03T03:57:14;12.82;;;2.90;;
3941;SDS011;1985;48.592;8.850;2022-09-03T03:59:41;9.10;;;2.28;;
3941;SDS011;1985;48.592;8.850;2022-09-03T04:02:06;10.80;;;3.30;;
3941;SDS011;1985;48.592;8.850;2022-09-03T04:04:32;10.23;;;2.75;;
3941;SDS011;1985;48.592;8.850;2022-09-03T04:06:58;15.98;;;3.00;;
3941;SDS011;1985;48.592;8.850;2022-09-03T04:09:23;10.90;;;2.83;;
3941;SDS011;1985;48.592;8.850;2022-09-03T04:11:49;11.07;;;3.20;;
3941;SDS011;1985;48.592;8.850;2022-09-03T04:14:15;11.13;;;3.33;;
3941;SDS011;1985;48.592;8.850;2022-09-03T04:16:42;11.10;;;3.40;;
3941;SDS011;1985;48.592;8.850;2022-09-03T04:19:10;10.20;;;2.90;;
3941;SDS011;1985;48.592;8.850;2022-09-03T04:21:37;10.70;;;2.50;;
3941;SDS011;1985;48.592;8.850;2022-09-03T04:24:03;10.18;;;2.78;;
3941;SDS011;1985;48.592;8.850;2022-09-03T04:26:30;10.00;;;2.20;;
3941;SDS011;1985;48.592;8.850;2022-09-03T04:28:57;10.73;;;2.72;;
3941;SDS011;1985;48.592;8.850;2022-09-03T04:31:25;9.57;;;2.22;;
3941;SDS011;1985;48.592;8.850;2022-09-03T04:33:51;9.93;;;2.60;;
3941;SDS011;1985;48.592;8.850;2022-09-03T04:38:46;10.88;;;2.95;;
3941;SDS011;1985;48.592;8.850;2022-09-03T04:41:15;11.70;;;2.90;;
3941;SDS011;1985;48.592;8.850;2022-09-03T04:43:42;10.70;;;2.80;;
3941;SDS011;1985;48.592;8.850;2022-09-03T04:46:09;11.67;;;3.27;;
3941;SDS011;1985;48.592;8.850;2022-09-03T04:48:36;11.10;;;2.95;;
3941;SDS011;1985;48.592;8.850;2022-09-03T04:51:03;11.63;;;3.22;;
3941;SDS011;1985;48.592;8.850;2022-09-03T04:53:43;10.45;;;3.00;;
3941;SDS011;1985;48.592;8.850;2022-09-03T04:56:17;10.20;;;2.90;;
3941;SDS011;1985;48.592;8.850;2022-09-03T04:58:44;10.50;;;3.00;;
3941;SDS011;1985;48.592;8.850;2022-09-03T05:01:12;11.45;;;3.40;;
3941;SDS011;1985;48.592;8.850;2022-09-03T05:03:42;11.50;;;3.10;;
3941;SDS011;1985;48.592;8.850;2022-09-03T05:06:09;11.23;;;3.17;;
3941;SDS011;1985;48.592;8.850;2022-09-03T05:08:35;10.80;;;3.38;;
3941;SDS011;1985;48.592;8.850;2022-09-03T05:11:04;12.07;;;3.40;;
3941;SDS011;1985;48.592;8.850;2022-09-03T05:13:32;10.25;;;2.97;;
3941;SDS011;1985;48.592;8.850;2022-09-03T05:16:02;10.63;;;2.95;;
3941;SDS011;1985;48.592;8.850;2022-09-03T05:18:30;11.18;;;2.97;;
3941;SDS011;1985;48.592;8.850;2022-09-03T05:21:00;11.63;;;3.60;;
3941;SDS011;1985;48.592;8.850;2022-09-03T05:23:28;11.57;;;3.30;;
3941;SDS011;1985;48.592;8.850;2022-09-03T05:25:58;13.45;;;3.05;;
3941;SDS011;1985;48.592;8.850;2022-09-03T05:28:25;12.40;;;3.30;;
3941;SDS011;1985;48.592;8.850;2022-09-03T05:33:26;10.90;;;2.70;;
3941;SDS011;1985;48.592;8.850;2022-09-03T05:35:52;15.45;;;3.70;;
3941;SDS011;1985;48.592;8.850;2022-09-03T05:38:19;15.27;;;2.90;;
3941;SDS011;1985;48.592;8.850;2022-09-03T05:40:45;9.80;;;2.60;;
3941;SDS011;1985;48.592;8.850;2022-09-03T05:43:10;11.63;;;3.20;;
3941;SDS011;1985;48.592;8.850;2022-09-03T05:45:36;11.20;;;3.30;;
3941;SDS011;1985;48.592;8.850;2022-09-03T05:48:01;10.20;;;2.90;;
3941;SDS011;1985;48.592;8.850;2022-09-03T05:50:27;11.10;;;3.20;;
3941;SDS011;1985;48.592;8.850;2022-09-03T05:52:53;11.07;;;3.13;;
3941;SDS011;1985;48.592;8.850;2022-09-03T05:55:18;10.35;;;2.70;;
3941;SDS011;1985;48.592;8.850;2022-09-03T05:57:44;10.77;;;3.10;;
3941;SDS011;1985;48.592;8.850;2022-09-03T06:00:15;10.70;;;3.10;;
3941;SDS011;1985;48.592;8.850;2022-09-03T06:02:42;10.10;;;2.90;;
3941;SDS011;1985;48.592;8.850;2022-09-03T06:05:13;11.50;;;2.87;;
3941;SDS011;1985;48.592;8.850;2022-09-03T06:07:40;10.18;;;2.90;;
3941;SDS011;1985;48.592;8.850;2022-09-03T06:10:06;11.18;;;2.75;;
3941;SDS011;1985;48.592;8.850;2022-09-03T06:12:32;10.30;;;2.70;;
3941;SDS011;1985;48.592;8.850;2022-09-03T06:14:57;10.37;;;3.13;;
3941;SDS011;1985;48.592;8.850;2022-09-03T06:17:23;10.95;;;3.20;;
3941;SDS011;1985;48.592;8.850;2022-09-03T06:19:49;10.77;;;3.00;;
3941;SDS011;1985;48.592;8.850;2022-09-03T06:22:14;12.87;;;3.20;;
3941;SDS011;1985;48.592;8.850;2022-09-03T06:24:41;10.68;;;2.80;;
3941;SDS011;1985;48.592;8.850;2022-09-03T06:27:06;14.70;;;3.50;;
3941;SDS011;1985;48.592;8.850;2022-09-03T06:29:32;11.07;;;3.20;;
3941;SDS011;1985;48.592;8.850;2022-09-03T06:31:59;12.47;;;2.60;;
3941;SDS011;1985;48.592;8.850;2022-09-03T06:34:27;10.60;;;3.10;;
3941;SDS011;1985;48.592;8.850;2022-09-03T06:36:53;9.45;;;2.40;;
3941;SDS011;1985;48.592;8.850;2022-09-03T06:39:19;10.00;;;2.70;;
3941;SDS011;1985;48.592;8.850;2022-09-03T06:41:44;10.70;;;3.00;;
3941;SDS011;1985;48.592;8.850;2022-09-03T06:44:12;9.90;;;2.75;;
3941;SDS011;1985;48.592;8.850;2022-09-03T06:46:39;11.50;;;2.70;;
3941;SDS011;1985;48.592;8.850;2022-09-03T06:49:08;11.30;;;3.50;;
3941;SDS011;1985;48.592;8.850;2022-09-03T06:51:34;11.80;;;3.33;;
3941;SDS011;1985;48.592;8.850;2022-09-03T06:54:05;11.40;;;3.40;;
3941;SDS011;1985;48.592;8.850;2022-09-03T06:56:32;12.30;;;3.00;;
3941;SDS011;1985;48.592;8.850;2022-09-03T06:59:02;10.35;;;2.90;;
3941;SDS011;1985;48.592;8.850;2022-09-03T07:01:30;10.73;;;2.95;;
3941;SDS011;1985;48.592;8.850;2022-09-03T07:03:57;10.18;;;2.80;;
3941;SDS011;1985;48.592;8.850;2022-09-03T07:06:25;10.40;;;2.95;;
3941;SDS011;1985;48.592;8.850;2022-09-03T07:08:56;10.48;;;3.20;;
3941;SDS011;1985;48.592;8.850;2022-09-03T07:11:24;12.13;;;3.47;;
3941;SDS011;1985;48.592;8.850;2022-09-03T07:13:53;10.27;;;2.95;;
3941;SDS011;1985;48.592;8.850;2022-09-03T07:16:24;10.30;;;3.10;;
3941;SDS011;1985;48.592;8.850;2022-09-03T07:18:51;12.60;;;3.30;;
3941;SDS011;1985;48.592;8.850;2022-09-03T07:21:19;11.15;;;3.05;;
3941;SDS011;1985;48.592;8.850;2022-09-03T07:23:47;10.20;;;2.88;;
3941;SDS011;1985;48.592;8.850;2022-09-03T07:26:17;11.25;;;3.00;;
3941;SDS011;1985;48.592;8.850;2022-09-03T07:28:44;10.57;;;3.10;;
3941;SDS011;1985;48.592;8.850;2022-09-03T07:31:20;10.65;;;2.95;;
3941;SDS011;1985;48.592;8.850;2022-09-03T07:33:53;10.20;;;2.80;;
3941;SDS011;1985;48.592;8.850;2022-09-03T07:36:20;10.82;;;2.65;;
3941;SDS011;1985;48.592;8.850;2022-09-03T07:38:46;11.68;;;3.40;;
3941;SDS011;1985;48.592;8.850;2022-09-03T07:41:13;10.50;;;2.90;;
3941;SDS011;1985;48.592;8.850;2022-09-03T07:43:40;9.77;;;2.63;;
3941;SDS011;1985;48.592;8.850;2022-09-03T07:46:13;9.80;;;2.30;;
3941;SDS011;1985;48.592;8.850;2022-09-03T07:48:45;10.00;;;2.47;;
3941;SDS011;1985;48.592;8.850;2022-09-03T07:51:12;11.13;;;2.43;;
3941;SDS011;1985;48.592;8.850;2022-09-03T07:53:38;11.20;;;2.97;;
3941;SDS011;1985;48.592;8.850;2022-09-03T07:56:05;11.10;;;2.40;;
3941;SDS011;1985;48.592;8.850;2022-09-03T07:58:32;10.23;;;2.40;;
3941;SDS011;1985;48.592;8.850;2022-09-03T08:01:03;9.70;;;2.30;;
3941;SDS011;1985;48.592;8.850;2022-09-03T08:03:42;9.90;;;2.40;;
3941;SDS011;1985;48.592;8.850;2022-09-03T08:06:10;11.82;;;2.63;;
3941;SDS011;1985;48.592;8.850;2022-09-03T08:08:36;10.57;;;2.72;;
3941;SDS011;1985;48.592;8.850;2022-09-03T08:11:03;9.57;;;2.20;;
3941;SDS011;1985;48.592;8.850;2022-09-03T08:13:40;10.02;;;2.08;;
3941;SDS011;1985;48.592;8.850;2022-09-03T08:16:12;9.80;;;2.47;;
3941;SDS011;1985;48.592;8.850;2022-09-03T08:18:39;9.55;;;2.47;;
3941;SDS011;1985;48.592;8.850;2022-09-03T08:21:08;9.97;;;2.40;;
3941;SDS011;1985;48.592;8.850;2022-09-03T08:23:41;9.00;;;2.22;;
3941;SDS011;1985;48.592;8.850;2022-09-03T08:26:08;10.30;;;1.90;;
3941;SDS011;1985;48.592;8.850;2022-09-03T08:28:35;9.50;;;2.20;;
3941;SDS011;1985;48.592;8.850;2022-09-03T08:31:05;9.65;;;2.30;;
3941;SDS011;1985;48.592;8.850;2022-09-03T08:33:32;9.87;;;2.20;;
3941;SDS011;1985;48.592;8.850;2022-09-03T08:38:32;9.43;;;2.00;;
3941;SDS011;1985;48.592;8.850;2022-09-03T08:41:06;11.05;;;2.05;;
3941;SDS011;1985;48.592;8.850;2022-09-03T08:43:32;9.93;;;2.10;;
3941;SDS011;1985;48.592;8.850;2022-09-03T08:46:07;9.20;;;2.10;;
3941;SDS011;1985;48.592;8.850;2022-09-03T08:48:33;9.27;;;2.13;;
3941;SDS011;1985;48.592;8.850;2022-09-03T08:51:00;10.05;;;2.30;;
3941;SDS011;1985;48.592;8.850;2022-09-03T08:55:55;10.13;;;2.50;;
3941;SDS011;1985;48.592;8.850;2022-09-03T08:58:34;9.55;;;2.47;;
3941;SDS011;1985;48.592;8.850;2022-09-03T09:07:16;9.00;;;1.92;;
3941;SDS011;1985;48.592;8.850;2022-09-03T09:09:46;9.73;;;2.20;;
3941;SDS011;1985;48.592;8.850;2022-09-03T09:15:17;10.20;;;2.30;;
3941;SDS011;1985;48.592;8.850;2022-09-03T09:21:16;11.55;;;2.10;;
3941;SDS011;1985;48.592;8.850;2022-09-03T09:23:47;9.98;;;2.33;;
3941;SDS011;1985;48.592;8.850;2022-09-03T09:26:15;9.27;;;2.17;;
3941;SDS011;1985;48.592;8.850;2022-09-03T09:28:44;9.20;;;2.00;;
3941;SDS011;1985;48.592;8.850;2022-09-03T09:31:13;9.50;;;2.22;;
3941;SDS011;1985;48.592;8.850;2022-09-03T09:33:42;9.60;;;2.23;;
3941;SDS011;1985;48.592;8.850;2022-09-03T09:36:09;10.20;;;2.20;;
3941;SDS011;1985;48.592;8.850;2022-09-03T09:38:41;9.90;;;2.00;;
3941;SDS011;1985;48.592;8.850;2022-09-03T09:41:17;10.20;;;2.30;;
3941;SDS011;1985;48.592;8.850;2022-09-03T09:43:45;9.60;;;2.10;;
3941;SDS011;1985;48.592;8.850;2022-09-03T09:46:21;8.98;;;2.17;;
3941;SDS011;1985;48.592;8.850;2022-09-03T09:48:53;10.90;;;2.25;;
3941;SDS011;1985;48.592;8.850;2022-09-03T09:51:22;9.15;;;2.13;;
3941;SDS011;1985;48.592;8.850;2022-09-03T09:54:14;12.35;;;1.80;;
3941;SDS011;1985;48.592;8.850;2022-09-03T09:56:46;10.30;;;2.70;;
3941;SDS011;1985;48.592;8.850;2022-09-03T09:59:22;9.20;;;2.05;;
3941;SDS011;1985;48.592;8.850;2022-09-03T10:01:48;9.07;;;2.30;;
3941;SDS011;1985;48.592;8.850;2022-09-03T10:06:55;9.63;;;2.30;;
3941;SDS011;1985;48.592;8.850;2022-09-03T10:09:44;9.70;;;1.92;;
3941;SDS011;1985;48.592;8.850;2022-09-03T10:20:13;10.43;;;2.50;;
3941;SDS011;1985;48.592;8.850;2022-09-03T10:25:20;8.70;;;2.00;;
3941;SDS011;1985;48.592;8.850;2022-09-03T10:27:51;9.68;;;2.40;;
3941;SDS011;1985;48.592;8.850;2022-09-03T10:30:18;9.30;;;2.20;;
3941;SDS011;1985;48.592;8.850;2022-09-03T10:35:39;9.90;;;2.10;;
3941;SDS011;1985;48.592;8.850;2022-09-03T10:38:24;9.70;;;2.33;;
3941;SDS011;1985;48.592;8.850;2022-09-03T10:41:15;8.50;;;1.85;;
3941;SDS011;1985;48.592;8.850;2022-09-03T10:49:48;10.00;;;2.20;;
3941;SDS011;1985;48.592;8.850;2022-09-03T10:52:42;9.10;;;1.98;;
3941;SDS011;1985;48.592;8.850;2022-09-03T10:55:41;9.30;;;2.38;;
3941;SDS011;1985;48.592;8.850;2022-09-03T11:01:51;10.15;;;2.40;;
3941;SDS011;1985;48.592;8.850;2022-09-03T11:04:34;12.32;;;3.20;;
3941;SDS011;1985;48.592;8.850;2022-09-03T11:07:35;11.25;;;3.30;;
3941;SDS011;1985;48.592;8.850;2022-09-03T11:10:17;12.13;;;3.53;;
3941;SDS011;1985;48.592;8.850;2022-09-03T11:12:45;10.88;;;2.65;;
3941;SDS011;1985;48.592;8.850;2022-09-03T11:18:11;14.13;;;3.20;;
3941;SDS011;1985;48.592;8.850;2022-09-03T11:20:50;11.50;;;2.90;;
3941;SDS011;1985;48.592;8.850;2022-09-03T11:23:19;10.15;;;2.40;;
3941;SDS011;1985;48.592;8.850;2022-09-03T11:25:49;10.07;;;2.25;;
3941;SDS011;1985;48.592;8.850;2022-09-03T11:33:49;12.45;;;3.20;;
3941;SDS011;1985;48.592;8.850;2022-09-03T11:36:26;10.63;;;2.95;;
3941;SDS011;1985;48.592;8.850;2022-09-03T11:38:57;11.23;;;3.15;;
3941;SDS011;1985;48.592;8.850;2022-09-03T11:43:58;10.23;;;2.10;;
3941;SDS011;1985;48.592;8.850;2022-09-03T11:46:41;11.17;;;2.40;;
3941;SDS011;1985;48.592;8.850;2022-09-03T11:49:26;11.95;;;2.47;;
3941;SDS011;1985;48.592;8.850;2022-09-03T11:51:58;10.38;;;1.98;;
3941;SDS011;1985;48.592;8.850;2022-09-03T11:54:26;9.50;;;1.80;;
3941;SDS011;1985;48.592;8.850;2022-09-03T11:57:02;9.40;;;1.60;;
3941;SDS011;1985;48.592;8.850;2022-09-03T11:59:40;9.65;;;1.50;;
3941;SDS011;1985;48.592;8.850;2022-09-03T12:16:05;10.38;;;1.80;;
3941;SDS011;1985;48.592;8.850;2022-09-03T12:18:53;9.80;;;1.38;;
3941;SDS011;1985;48.592;8.850;2022-09-03T12:21:24;10.38;;;1.70;;
3941;SDS011;1985;48.592;8.850;2022-09-03T12:23:50;8.50;;;1.37;;
3941;SDS011;1985;48.592;8.850;2022-09-03T12:26:19;10.63;;;1.40;;
3941;SDS011;1985;48.592;8.850;2022-09-03T12:28:51;11.85;;;1.30;;
3941;SDS011;1985;48.592;8.850;2022-09-03T12:31:28;9.23;;;1.50;;
3941;SDS011;1985;48.592;8.850;2022-09-03T12:36:25;8.70;;;1.30;;
3941;SDS011;1985;48.592;8.850;2022-09-03T12:39:10;8.40;;;1.25;;
3941;SDS011;1985;48.592;8.850;2022-09-03T12:47:04;9.13;;;1.92;;
3941;SDS011;1985;48.592;8.850;2022-09-03T12:49:34;14.80;;;1.30;;
3941;SDS011;1985;48.592;8.850;2022-09-03T12:52:02;9.25;;;1.30;;
3941;SDS011;1985;48.592;8.850;2022-09-03T12:54:33;8.80;;;1.15;;
3941;SDS011;1985;48.592;8.850;2022-09-03T12:57:08;10.33;;;1.53;;
3941;SDS011;1985;48.592;8.850;2022-09-03T12:59:34;8.50;;;1.35;;
3941;SDS011;1985;48.592;8.850;2022-09-03T13:02:04;9.02;;;1.50;;
3941;SDS011;1985;48.592;8.850;2022-09-03T13:04:37;8.93;;;1.30;;
3941;SDS011;1985;48.592;8.850;2022-09-03T13:07:12;9.27;;;1.52;;
3941;SDS011;1985;48.592;8.850;2022-09-03T13:09:45;9.73;;;1.73;;
3941;SDS011;1985;48.592;8.850;2022-09-03T13:12:23;8.87;;;1.50;;
3941;SDS011;1985;48.592;8.850;2022-09-03T13:14:54;9.45;;;1.60;;
3941;SDS011;1985;48.592;8.850;2022-09-03T13:23:01;9.80;;;1.90;;
3941;SDS011;1985;48.592;8.850;2022-09-03T13:33:31;10.63;;;2.05;;
3941;SDS011;1985;48.592;8.850;2022-09-03T13:36:15;8.85;;;1.90;;
3941;SDS011;1985;48.592;8.850;2022-09-03T13:41:37;9.52;;;1.70;;
3941;SDS011;1985;48.592;8.850;2022-09-03T13:44:14;8.60;;;1.77;;
3941;SDS011;1985;48.592;8.850;2022-09-03T13:46:59;11.30;;;2.15;;
3941;SDS011;1985;48.592;8.850;2022-09-03T13:52:52;9.30;;;1.70;;
3941;SDS011;1985;48.592;8.850;2022-09-03T13:59:00;9.50;;;2.13;;
3941;SDS011;1985;48.592;8.850;2022-09-03T14:03:41;15.45;;;2.50;;
3941;SDS011;1985;48.592;8.850;2022-09-03T14:06:10;9.52;;;2.25;;
3941;SDS011;1985;48.592;8.850;2022-09-03T14:09:08;9.40;;;2.00;;
3941;SDS011;1985;48.592;8.850;2022-09-03T14:12:18;9.32;;;1.90;;
3941;SDS011;1985;48.592;8.850;2022-09-03T14:15:00;9.27;;;1.70;;
3941;SDS011;1985;48.592;8.850;2022-09-03T14:20:27;8.68;;;1.75;;
3941;SDS011;1985;48.592;8.850;2022-09-03T14:26:00;8.60;;;1.33;;
3941;SDS011;1985;48.592;8.850;2022-09-03T14:55:55;8.30;;;1.50;;
3941;SDS011;1985;48.592;8.850;2022-09-03T15:01:10;8.40;;;1.58;;
3941;SDS011;1985;48.592;8.850;2022-09-03T15:09:31;8.90;;;1.40;;
3941;SDS011;1985;48.592;8.850;2022-09-03T15:14:54;8.88;;;1.60;;
3941;SDS011;1985;48.592;8.850;2022-09-03T15:28:54;8.80;;;1.60;;
3941;SDS011;1985;48.592;8.850;2022-09-03T15:34:45;8.70;;;1.30;;
3941;SDS011;1985;48.592;8.850;2022-09-03T15:37:16;9.73;;;1.50;;
3941;SDS011;1985;48.592;8.850;2022-09-03T15:39:47;8.65;;;1.52;;
3941;SDS011;1985;48.592;8.850;2022-09-03T15:42:40;8.73;;;1.80;;
3941;SDS011;1985;48.592;8.850;2022-09-03T15:45:31;8.77;;;1.38;;
3941;SDS011;1985;48.592;8.850;2022-09-03T15:50:51;8.90;;;1.60;;
3941;SDS011;1985;48.592;8.850;2022-09-03T15:58:56;8.18;;;1.30;;
3941;SDS011;1985;48.592;8.850;2022-09-03T16:06:49;8.20;;;1.30;;
3941;SDS011;1985;48.592;8.850;2022-09-03T16:15:26;8.23;;;1.30;;
3941;SDS011;1985;48.592;8.850;2022-09-03T16:18:03;7.90;;;1.20;;
3941;SDS011;1985;48.592;8.850;2022-09-03T16:23:35;8.20;;;1.40;;
3941;SDS011;1985;48.592;8.850;2022-09-03T16:26:17;10.38;;;1.60;;
3941;SDS011;1985;48.592;8.850;2022-09-03T16:37:36;10.75;;;2.53;;
3941;SDS011;1985;48.592;8.850;2022-09-03T16:51:42;8.80;;;1.70;;
3941;SDS011;1985;48.592;8.850;2022-09-03T16:57:17;8.40;;;1.40;;
3941;SDS011;1985;48.592;8.850;2022-09-03T16:59:53;8.20;;;1.40;;
3941;SDS011;1985;48.592;8.850;2022-09-03T17:19:51;8.50;;;1.58;;
3941;SDS011;1985;48.592;8.850;2022-09-03T17:41:29;9.07;;;1.70;;
3941;SDS011;1985;48.592;8.850;2022-09-03T17:49:15;8.10;;;1.38;;
3941;SDS011;1985;48.592;8.850;2022-09-03T17:51:52;9.40;;;1.80;;
3941;SDS011;1985;48.592;8.850;2022-09-03T17:59:56;11.07;;;2.20;;
3941;SDS011;1985;48.592;8.850;2022-09-03T18:05:05;11.23;;;3.43;;
3941;SDS011;1985;48.592;8.850;2022-09-03T18:08:06;12.35;;;3.58;;
3941;SDS011;1985;48.592;8.850;2022-09-03T18:10:43;11.75;;;2.80;;
3941;SDS011;1985;48.592;8.850;2022-09-03T18:18:44;9.65;;;2.03;;
3941;SDS011;1985;48.592;8.850;2022-09-03T18:21:22;8.85;;;1.65;;
3941;SDS011;1985;48.592;8.850;2022-09-03T18:27:32;10.50;;;1.83;;
3941;SDS011;1985;48.592;8.850;2022-09-03T18:30:19;9.00;;;1.90;;
3941;SDS011;1985;48.592;8.850;2022-09-03T18:33:03;8.70;;;1.60;;
3941;SDS011;1985;48.592;8.850;2022-09-03T18:35:47;9.70;;;1.50;;
3941;SDS011;1985;48.592;8.850;2022-09-03T18:38:34;8.50;;;1.30;;
3941;SDS011;1985;48.592;8.850;2022-09-03T18:50:49;8.38;;;1.50;;
3941;SDS011;1985;48.592;8.850;2022-09-03T18:56:48;8.15;;;1.20;;
3941;SDS011;1985;48.592;8.850;2022-09-03T19:05:18;9.55;;;1.83;;
3941;SDS011;1985;48.592;8.850;2022-09-03T19:14:23;8.80;;;1.85;;
3941;SDS011;1985;48.592;8.850;2022-09-03T19:20:23;9.02;;;1.52;;
3941;SDS011;1985;48.592;8.850;2022-09-03T19:23:12;9.32;;;1.90;;
3941;SDS011;1985;48.592;8.850;2022-09-03T19:25:58;8.80;;;1.63;;
3941;SDS011;1985;48.592;8.850;2022-09-03T19:28:55;9.73;;;1.52;;
3941;SDS011;1985;48.592;8.850;2022-09-03T19:32:03;8.30;;;1.40;;
3941;SDS011;1985;48.592;8.850;2022-09-03T19:55:35;9.38;;;1.90;;
3941;SDS011;1985;48.592;8.850;2022-09-03T19:58:25;8.60;;;1.52;;
3941;SDS011;1985;48.592;8.850;2022-09-03T20:01:13;8.80;;;1.70;;
3941;SDS011;1985;48.592;8.850;2022-09-03T20:04:02;8.80;;;1.73;;
3941;SDS011;1985;48.592;8.850;2022-09-03T20:06:54;8.43;;;1.50;;
3941;SDS011;1985;48.592;8.850;2022-09-03T20:09:40;9.18;;;1.90;;
3941;SDS011;1985;48.592;8.850;2022-09-03T20:12:27;8.70;;;1.65;;
3941;SDS011;1985;48.592;8.850;2022-09-03T20:14:56;14.90;;;1.80;;
3941;SDS011;1985;48.592;8.850;2022-09-03T20:22:58;9.57;;;2.00;;
3941;SDS011;1985;48.592;8.850;2022-09-03T20:28:04;8.73;;;1.50;;
3941;SDS011;1985;48.592;8.850;2022-09-03T20:30:57;8.40;;;1.30;;
3941;SDS011;1985;48.592;8.850;2022-09-03T20:50:00;8.82;;;1.70;;
3941;SDS011;1985;48.592;8.850;2022-09-03T20:55:40;8.70;;;1.65;;
3941;SDS011;1985;48.592;8.850;2022-09-03T21:00:43;11.25;;;2.10;;
3941;SDS011;1985;48.592;8.850;2022-09-03T21:08:47;8.63;;;1.70;;
3941;SDS011;1985;48.592;8.850;2022-09-03T21:24:10;10.02;;;2.40;;
3941;SDS011;1985;48.592;8.850;2022-09-03T21:26:50;9.45;;;2.40;;
3941;SDS011;1985;48.592;8.850;2022-09-03T21:31:53;10.00;;;2.17;;
3941;SDS011;1985;48.592;8.850;2022-09-03T21:34:37;10.55;;;2.08;;
3941;SDS011;1985;48.592;8.850;2022-09-03T21:37:10;9.18;;;1.77;;
3941;SDS011;1985;48.592;8.850;2022-09-03T21:39:50;8.48;;;1.50;;
3941;SDS011;1985;48.592;8.850;2022-09-03T21:45:50;10.07;;;1.80;;
3941;SDS011;1985;48.592;8.850;2022-09-03T21:48:02;8.68;;;1.52;;
3941;SDS011;1985;48.592;8.850;2022-09-03T21:53:26;8.65;;;1.50;;
3941;SDS011;1985;48.592;8.850;2022-09-03T22:02:12;8.70;;;1.50;;
3941;SDS011;1985;48.592;8.850;2022-09-03T22:04:24;9.10;;;1.70;;
3941;SDS011;1985;48.592;8.850;2022-09-03T22:06:57;8.70;;;1.70;;
3941;SDS011;1985;48.592;8.850;2022-09-03T22:09:48;10.43;;;1.90;;
3941;SDS011;1985;48.592;8.850;2022-09-03T22:12:49;8.90;;;1.70;;
3941;SDS011;1985;48.592;8.850;2022-09-03T22:15:28;8.90;;;1.60;;
3941;SDS011;1985;48.592;8.850;2022-09-03T22:20:30;10.68;;;2.05;;
3941;SDS011;1985;48.592;8.850;2022-09-03T22:23:07;11.00;;;1.60;;
3941;SDS011;1985;48.592;8.850;2022-09-03T22:25:55;9.17;;;1.60;;
3941;SDS011;1985;48.592;8.850;2022-09-03T22:28:40;9.20;;;1.45;;
3941;SDS011;1985;48.592;8.850;2022-09-03T22:36:40;14.70;;;2.30;;
3941;SDS011;1985;48.592;8.850;2022-09-03T22:40:00;12.55;;;1.70;;
3941;SDS011;1985;48.592;8.850;2022-09-03T22:50:17;9.23;;;1.77;;
3941;SDS011;1985;48.592;8.850;2022-09-03T22:53:52;8.80;;;1.73;;
3941;SDS011;1985;48.592;8.850;2022-09-03T22:55:58;10.73;;;1.80;;
3941;SDS011;1985;48.592;8.850;2022-09-03T22:58:31;11.02;;;2.70;;
3941;SDS011;1985;48.592;8.850;2022-09-03T23:01:19;9.20;;;1.80;;
3941;SDS011;1985;48.592;8.850;2022-09-03T23:03:51;9.52;;;1.70;;
3941;SDS011;1985;48.592;8.850;2022-09-03T23:06:25;8.70;;;1.70;;
3941;SDS011;1985;48.592;8.850;2022-09-03T23:09:03;8.65;;;1.45;;
3941;SDS011;1985;48.592;8.850;2022-09-03T23:14:12;9.90;;;1.60;;
3941;SDS011;1985;48.592;8.850;2022-09-03T23:22:14;9.43;;;1.97;;
3941;SDS011;1985;48.592;8.850;2022-09-03T23:25:05;9.10;;;1.77;;